Time;durP1;ratioP1;P1;durP2;ratioP2;P2;SDS_P1;SDS_P2;PMS_P1;PMS_P2;Temp;Humidity;BMP_temperature;BMP_pressure;BME280_temperature;BME280_humidity;BME280_pressure;Samples;Min_cycle;Max_cycle;Signal;HPM_P1;HPM_P2
2022/09/16 00:00:52;;;;;;;1.35;0.80;;;18.90;99.90;;;;;;5054703;28;20396;-82
2022/09/16 00:03:20;;;;;;;1.00;0.70;;;18.90;99.90;;;;;;5051146;28;20381;-84
2022/09/16 00:05:50;;;;;;;1.97;0.80;;;18.80;99.90;;;;;;5073172;28;20733;-91
2022/09/16 00:08:19;;;;;;;1.63;0.90;;;18.90;99.90;;;;;;5035318;28;20658;-82
2022/09/16 00:10:46;;;;;;;1.60;0.83;;;19.00;99.90;;;;;;5056555;28;20437;-82
2022/09/16 00:13:14;;;;;;;1.48;0.75;;;19.20;99.90;;;;;;5059547;28;20383;-83
2022/09/16 00:15:51;;;;;;;2.80;0.90;;;19.10;99.90;;;;;;5051781;28;20405;-84
2022/09/16 00:18:19;;;;;;;1.50;0.70;;;19.10;99.90;;;;;;5055281;28;20368;-80
2022/09/16 00:20:49;;;;;;;4.20;0.80;;;19.10;99.90;;;;;;5053371;28;20871;-86
2022/09/16 00:23:17;;;;;;;2.90;0.70;;;19.30;99.90;;;;;;5057764;28;20375;-82
2022/09/16 00:25:49;;;;;;;1.10;0.70;;;19.40;99.90;;;;;;5077290;28;20370;-79
2022/09/16 00:28:17;;;;;;;1.35;0.77;;;19.50;99.90;;;;;;5063088;28;20475;-87
2022/09/16 00:30:45;;;;;;;0.98;0.80;;;19.60;99.90;;;;;;5040282;28;20773;-85
2022/09/16 00:33:12;;;;;;;1.20;0.80;;;19.60;99.90;;;;;;5036087;28;20380;-85
2022/09/16 00:35:39;;;;;;;1.20;0.80;;;19.70;99.90;;;;;;5057230;28;20374;-85
2022/09/16 00:38:06;;;;;;;1.45;0.80;;;19.80;99.90;;;;;;5057992;28;20376;-85
2022/09/16 00:40:34;;;;;;;2.10;0.73;;;19.90;99.90;;;;;;5036728;28;20478;-87
2022/09/16 00:43:01;;;;;;;1.23;0.70;;;20.10;99.90;;;;;;5058592;28;20921;-87
2022/09/16 00:45:30;;;;;;;1.25;0.63;;;20.30;98.80;;;;;;5065421;28;20362;-85
2022/09/16 00:48:01;;;;;;;1.80;0.70;;;20.40;96.60;;;;;;5057735;28;20624;-85
2022/09/16 00:50:43;;;;;;;0.77;0.60;;;20.50;99.20;;;;;;5041050;28;20375;-86
2022/09/16 00:53:15;;;;;;;2.42;0.80;;;20.50;98.00;;;;;;5074610;28;20404;-88
2022/09/16 00:55:43;;;;;;;1.80;0.88;;;20.60;95.70;;;;;;5081341;28;20375;-86
2022/09/16 00:58:22;;;;;;;1.33;0.90;;;20.60;92.80;;;;;;5047974;28;20380;-86
2022/09/16 01:00:51;;;;;;;2.03;0.90;;;20.70;94.60;;;;;;5054732;28;20431;-86
2022/09/16 01:03:19;;;;;;;1.85;0.80;;;20.80;91.70;;;;;;5045738;28;20441;-87
2022/09/16 01:05:50;;;;;;;1.48;0.77;;;20.80;95.80;;;;;;5061683;28;20363;-88
2022/09/16 01:08:17;;;;;;;1.25;0.80;;;20.80;92.90;;;;;;5059365;28;20454;-88
2022/09/16 01:10:44;;;;;;;1.58;0.77;;;21.00;94.10;;;;;;5060542;28;20462;-86
2022/09/16 01:13:14;;;;;;;2.30;0.70;;;20.90;91.00;;;;;;5061887;28;20378;-87
2022/09/16 01:15:54;;;;;;;1.00;0.70;;;21.00;91.30;;;;;;5061347;28;20379;-88
2022/09/16 01:18:33;;;;;;;2.38;1.00;;;21.20;93.20;;;;;;5060736;28;20403;-87
2022/09/16 01:21:07;;;;;;;1.35;0.77;;;21.30;91.20;;;;;;5043874;28;20399;-87
2022/09/16 01:24:06;;;;;;;3.33;0.90;;;21.30;91.90;;;;;;5069648;28;20336;-88
2022/09/16 01:26:39;;;;;;;2.22;0.80;;;21.60;90.60;;;;;;5058404;28;20364;-87
2022/09/16 01:29:50;;;;;;;3.92;0.90;;;21.80;80.10;;;;;;5068669;28;20395;-88
2022/09/16 01:32:30;;;;;;;2.72;0.77;;;22.50;71.70;;;;;;5007232;28;20920;-88
2022/09/16 01:35:11;;;;;;;1.92;0.80;;;23.10;62.30;;;;;;4995583;28;20414;-88
2022/09/16 01:38:13;;;;;;;2.30;0.70;;;22.10;55.60;;;;;;5000247;28;20415;-85
2022/09/16 01:41:08;;;;;;;1.58;0.70;;;20.10;55.00;;;;;;4972148;28;20471;-86
2022/09/16 01:43:38;;;;;;;2.00;0.70;;;23.20;56.60;;;;;;4975450;28;20368;-85
2022/09/16 01:46:22;;;;;;;1.23;0.70;;;24.00;53.50;;;;;;4957589;29;20404;-86
2022/09/16 01:49:33;;;;;;;2.17;0.98;;;24.00;46.20;;;;;;4974394;28;20389;-85
2022/09/16 01:52:12;;;;;;;1.65;0.85;;;24.40;45.00;;;;;;4937326;29;20392;-86
2022/09/16 01:54:49;;;;;;;2.10;0.80;;;24.10;44.70;;;;;;4933934;29;20372;-86
2022/09/16 01:57:18;;;;;;;1.40;0.70;;;23.60;45.20;;;;;;4924658;29;20388;-87
2022/09/16 02:00:07;;;;;;;1.43;0.60;;;24.20;46.40;;;;;;4923076;29;20416;-88
2022/09/16 02:03:12;;;;;;;2.05;0.70;;;24.50;44.10;;;;;;4905557;29;20387;-86
2022/09/16 02:05:56;;;;;;;1.40;0.70;;;24.60;44.10;;;;;;4933141;29;20384;-86
2022/09/16 02:08:57;;;;;;;2.25;0.80;;;24.60;43.90;;;;;;4923999;29;20382;-87
2022/09/16 02:11:26;;;;;;;1.33;0.80;;;24.80;44.00;;;;;;4931162;29;20434;-88
2022/09/16 02:13:55;;;;;;;2.55;1.10;;;24.80;44.10;;;;;;4955886;28;20388;-88
2022/09/16 02:16:35;;;;;;;2.33;0.80;;;25.10;42.80;;;;;;4968251;28;20383;-87
2022/09/16 02:19:18;;;;;;;2.00;0.63;;;24.90;44.60;;;;;;4997562;28;20460;-87
2022/09/16 02:21:46;;;;;;;1.42;0.70;;;24.80;44.00;;;;;;4993749;28;20927;-87
2022/09/16 02:24:20;;;;;;;2.97;0.70;;;25.00;44.00;;;;;;4997407;28;20385;-87
2022/09/16 02:26:58;;;;;;;1.45;0.60;;;25.40;41.30;;;;;;5063209;28;20404;-88
2022/09/16 02:29:30;;;;;;;3.00;0.77;;;25.50;42.70;;;;;;5057487;28;20408;-86
2022/09/16 02:32:02;;;;;;;1.40;0.70;;;25.40;42.20;;;;;;5059260;28;20368;-88
2022/09/16 02:34:56;;;;;;;2.47;0.60;;;24.90;44.20;;;;;;5056394;28;20400;-87
2022/09/16 02:37:44;;;;;;;1.00;0.60;;;24.80;42.70;;;;;;5050347;28;20890;-87
2022/09/16 02:40:23;;;;;;;1.90;0.65;;;24.80;44.00;;;;;;5021946;28;20396;-86
2022/09/16 02:42:51;;;;;;;1.33;0.65;;;25.30;45.00;;;;;;5052218;28;20386;-86
2022/09/16 02:45:23;;;;;;;1.23;0.60;;;25.50;42.80;;;;;;5052833;28;20448;-87
2022/09/16 02:48:02;;;;;;;1.55;0.70;;;25.10;42.60;;;;;;5052438;28;20458;-87
2022/09/16 02:50:38;;;;;;;2.30;0.60;;;25.20;42.80;;;;;;5034422;28;20375;-87
2022/09/16 02:53:25;;;;;;;1.42;0.73;;;25.40;42.50;;;;;;5034739;28;21109;-86
2022/09/16 02:56:07;;;;;;;0.98;0.65;;;25.20;43.00;;;;;;5052272;28;20379;-85
2022/09/16 02:58:34;;;;;;;2.38;0.70;;;25.60;43.10;;;;;;5054647;28;20763;-86
2022/09/16 03:01:02;;;;;;;1.80;0.70;;;25.20;41.80;;;;;;5055121;28;20400;-86
2022/09/16 03:03:29;;;;;;;1.20;0.70;;;25.50;43.10;;;;;;5057584;28;20379;-89
2022/09/16 03:06:05;;;;;;;1.90;0.70;;;25.50;41.20;;;;;;5056207;28;20379;-88
2022/09/16 03:08:34;;;;;;;1.08;0.50;;;25.30;42.90;;;;;;5054378;28;20367;-86
2022/09/16 03:11:16;;;;;;;1.25;0.70;;;25.10;43.00;;;;;;5053946;28;20736;-86
2022/09/16 03:14:08;;;;;;;2.20;0.70;;;25.60;41.90;;;;;;5053574;28;20832;-87
2022/09/16 03:17:15;;;;;;;1.70;0.70;;;26.20;42.40;;;;;;5052056;28;20379;-87
2022/09/16 03:20:18;;;;;;;1.55;0.60;;;26.30;41.50;;;;;;5039310;28;20890;-86
2022/09/16 03:22:54;;;;;;;1.02;0.60;;;26.60;42.10;;;;;;5052291;28;20367;-86
2022/09/16 03:25:43;;;;;;;1.00;0.50;;;26.30;41.40;;;;;;5052995;28;20360;-88
2022/09/16 03:28:16;;;;;;;2.47;0.60;;;26.50;40.90;;;;;;5038743;28;20372;-87
2022/09/16 03:31:38;;;;;;;3.05;0.70;;;26.40;40.50;;;;;;5051671;28;20363;-88
2022/09/16 03:34:05;;;;;;;2.17;0.75;;;25.90;41.80;;;;;;4989723;28;20384;-86
2022/09/16 03:36:38;;;;;;;2.83;0.80;;;26.40;40.30;;;;;;4973280;28;20526;-86
2022/09/16 03:39:06;;;;;;;2.05;0.70;;;26.20;41.00;;;;;;5001620;28;20430;-86
2022/09/16 03:41:36;;;;;;;2.28;0.70;;;26.20;40.00;;;;;;4995797;28;20450;-87
2022/09/16 03:44:03;;;;;;;0.88;0.52;;;26.50;42.00;;;;;;4996042;28;20396;-87
2022/09/16 03:46:31;;;;;;;1.67;0.70;;;26.70;39.20;;;;;;4992848;28;20471;-86
2022/09/16 03:48:59;;;;;;;1.30;0.77;;;26.70;40.60;;;;;;4999717;28;20443;-87
2022/09/16 03:51:26;;;;;;;2.92;0.82;;;26.80;41.90;;;;;;4989236;28;21018;-87
2022/09/16 03:53:54;;;;;;;2.27;0.83;;;26.60;41.30;;;;;;4989399;28;20439;-87
2022/09/16 03:56:23;;;;;;;1.20;0.60;;;27.00;41.20;;;;;;4989064;28;20635;-87
2022/09/16 03:58:51;;;;;;;1.60;0.70;;;27.50;40.30;;;;;;4972965;28;21384;-87
2022/09/16 04:01:19;;;;;;;4.85;1.08;;;27.00;40.60;;;;;;4989645;28;20388;-86
2022/09/16 04:03:46;;;;;;;2.07;0.70;;;27.20;42.20;;;;;;4973045;28;20439;-86
2022/09/16 04:06:13;;;;;;;1.40;0.77;;;27.40;40.70;;;;;;4998719;28;20856;-86
2022/09/16 04:08:43;;;;;;;2.33;0.80;;;27.30;40.60;;;;;;5016886;28;20404;-86
2022/09/16 04:11:10;;;;;;;2.10;0.73;;;27.80;41.10;;;;;;5040424;28;20451;-87
2022/09/16 04:13:37;;;;;;;1.90;0.70;;;28.00;39.80;;;;;;5038580;28;20380;-87
2022/09/16 04:16:04;;;;;;;2.58;0.80;;;27.90;39.40;;;;;;5063355;28;20376;-87
2022/09/16 04:18:33;;;;;;;1.42;0.80;;;27.40;39.60;;;;;;5061629;28;20382;-87
2022/09/16 04:21:03;;;;;;;2.85;1.00;;;26.80;38.80;;;;;;5053123;28;20526;-87
2022/09/16 04:23:30;;;;;;;1.83;0.77;;;27.20;40.40;;;;;;5050623;28;20360;-86
2022/09/16 04:26:00;;;;;;;1.85;0.98;;;27.20;40.30;;;;;;5050537;28;20863;-87
2022/09/16 04:28:29;;;;;;;1.83;1.00;;;26.40;40.00;;;;;;5033960;28;20429;-86
2022/09/16 04:31:04;;;;;;;2.80;1.20;;;27.00;39.90;;;;;;5054378;28;20376;-85
2022/09/16 04:33:33;;;;;;;1.60;0.70;;;27.10;40.40;;;;;;5062991;28;20451;-84
2022/09/16 04:36:08;;;;;;;3.53;1.00;;;26.50;40.30;;;;;;5059517;28;20375;-86
2022/09/16 04:38:36;;;;;;;3.00;0.90;;;26.40;41.00;;;;;;5062538;28;20366;-86
2022/09/16 04:41:07;;;;;;;3.08;1.10;;;26.80;40.80;;;;;;5059494;28;20438;-88
2022/09/16 04:43:34;;;;;;;2.53;1.10;;;26.70;39.90;;;;;;5051257;28;20382;-87
2022/09/16 04:46:01;;;;;;;2.22;1.00;;;26.70;40.20;;;;;;5054220;28;20851;-86
2022/09/16 04:48:29;;;;;;;1.08;0.70;;;27.00;40.30;;;;;;5036223;28;20382;-87
2022/09/16 04:51:07;;;;;;;2.25;0.90;;;27.20;40.90;;;;;;5054525;28;20382;-86
2022/09/16 04:53:34;;;;;;;1.50;0.80;;;26.60;41.20;;;;;;5054425;28;20440;-86
2022/09/16 04:56:16;;;;;;;4.30;0.73;;;26.40;41.10;;;;;;5054428;28;20371;-85
2022/09/16 04:58:48;;;;;;;1.75;0.80;;;26.50;41.10;;;;;;5054014;28;20380;-85
2022/09/16 05:01:21;;;;;;;2.60;0.90;;;25.80;40.80;;;;;;5053835;28;20379;-85
2022/09/16 05:03:50;;;;;;;2.53;0.90;;;25.60;41.20;;;;;;5053692;28;20368;-85
2022/09/16 05:06:28;;;;;;;1.98;0.70;;;25.60;41.90;;;;;;5053889;28;20368;-86
2022/09/16 05:08:56;;;;;;;2.10;0.70;;;26.40;40.80;;;;;;5054018;28;20868;-85
2022/09/16 05:11:26;;;;;;;3.28;0.90;;;26.90;41.60;;;;;;5053826;28;20724;-86
2022/09/16 05:13:54;;;;;;;3.53;0.90;;;27.00;40.30;;;;;;5053601;28;20371;-86
2022/09/16 05:16:23;;;;;;;2.10;0.75;;;27.00;40.90;;;;;;5053863;28;20486;-86
2022/09/16 05:18:53;;;;;;;3.77;0.90;;;26.10;40.10;;;;;;5053654;28;20947;-85
2022/09/16 05:21:22;;;;;;;4.65;1.05;;;26.30;40.40;;;;;;5036526;28;20391;-85
2022/09/16 05:23:49;;;;;;;1.83;0.90;;;26.60;42.20;;;;;;5053445;28;20455;-88
2022/09/16 05:26:22;;;;;;;3.10;0.80;;;26.80;39.90;;;;;;5053180;28;20380;-85
2022/09/16 05:28:50;;;;;;;2.45;0.82;;;26.50;40.30;;;;;;5054372;28;20376;-87
2022/09/16 05:31:20;;;;;;;2.25;0.80;;;26.20;40.20;;;;;;5054551;28;20463;-86
2022/09/16 05:33:55;;;;;;;4.22;1.00;;;26.10;40.80;;;;;;5040471;28;20407;-87
2022/09/16 05:36:23;;;;;;;2.45;0.98;;;25.90;40.10;;;;;;5058005;28;20429;-87
2022/09/16 05:38:50;;;;;;;2.92;0.80;;;26.00;40.40;;;;;;5058307;28;20933;-87
2022/09/16 05:41:17;;;;;;;2.20;1.05;;;25.90;39.70;;;;;;5069756;28;20390;-86
2022/09/16 05:43:44;;;;;;;2.53;0.90;;;25.70;41.10;;;;;;5038685;28;20376;-85
2022/09/16 05:46:17;;;;;;;3.13;0.90;;;25.90;41.50;;;;;;5073040;28;20394;-87
2022/09/16 05:48:46;;;;;;;1.67;0.60;;;25.80;40.30;;;;;;5040066;28;20371;-87
2022/09/16 05:51:16;;;;;;;3.05;0.85;;;25.30;40.70;;;;;;5058147;28;20473;-85
2022/09/16 05:53:46;;;;;;;3.93;0.90;;;25.30;41.00;;;;;;5061525;28;20372;-87
2022/09/16 05:56:19;;;;;;;2.85;0.95;;;24.70;42.30;;;;;;5057523;28;20386;-87
2022/09/16 05:58:47;;;;;;;2.42;0.85;;;24.80;41.40;;;;;;5057445;28;20719;-87
2022/09/16 06:01:23;;;;;;;2.05;0.80;;;25.40;41.40;;;;;;5059510;28;20474;-87
2022/09/16 06:03:51;;;;;;;3.78;0.90;;;25.50;41.30;;;;;;5070104;28;20379;-87
2022/09/16 06:06:42;;;;;;;1.67;0.88;;;25.20;41.10;;;;;;4998632;28;20441;-87
2022/09/16 06:09:11;;;;;;;2.30;1.00;;;25.20;41.20;;;;;;4998471;28;20465;-88
2022/09/16 06:11:41;;;;;;;2.70;0.90;;;25.30;42.70;;;;;;4997937;28;20385;-86
2022/09/16 06:14:09;;;;;;;2.72;0.80;;;25.60;41.50;;;;;;4997709;28;20381;-86
2022/09/16 06:16:37;;;;;;;2.92;0.90;;;25.60;42.00;;;;;;4997657;28;20999;-86
2022/09/16 06:19:12;;;;;;;2.67;0.80;;;25.40;42.40;;;;;;4981204;28;20393;-87
2022/09/16 06:21:42;;;;;;;3.10;1.00;;;24.90;42.40;;;;;;4998072;28;20388;-87
2022/09/16 06:24:10;;;;;;;2.88;0.88;;;24.80;42.60;;;;;;4999967;28;20432;-87
2022/09/16 06:26:41;;;;;;;1.50;1.00;;;25.00;42.80;;;;;;5001297;28;20384;-86
2022/09/16 06:29:09;;;;;;;3.30;1.00;;;25.20;42.40;;;;;;4999965;28;20446;-87
2022/09/16 06:31:37;;;;;;;2.35;0.98;;;24.70;42.50;;;;;;4982753;28;20377;-86
2022/09/16 06:34:13;;;;;;;2.78;0.90;;;24.20;42.70;;;;;;4998653;28;20377;-87
2022/09/16 06:36:43;;;;;;;1.27;0.70;;;24.10;42.50;;;;;;5004601;28;20372;-86
2022/09/16 06:39:12;;;;;;;1.58;0.80;;;23.90;43.20;;;;;;5005012;28;20388;-86
2022/09/16 06:41:40;;;;;;;2.78;0.98;;;23.90;43.00;;;;;;5011689;28;20401;-87
2022/09/16 06:44:07;;;;;;;1.70;0.90;;;24.00;42.90;;;;;;5001484;28;20431;-85
2022/09/16 06:46:34;;;;;;;2.08;0.80;;;23.70;43.60;;;;;;5007096;28;20385;-86
2022/09/16 06:49:01;;;;;;;1.75;0.95;;;23.60;42.80;;;;;;4981833;28;20378;-88
2022/09/16 06:51:30;;;;;;;2.58;1.00;;;23.70;43.60;;;;;;5068918;28;20905;-86
2022/09/16 06:54:08;;;;;;;2.05;0.93;;;23.40;43.10;;;;;;5059350;28;20364;-87
2022/09/16 06:56:37;;;;;;;2.83;1.00;;;23.30;43.80;;;;;;5052420;28;20871;-87
2022/09/16 06:59:05;;;;;;;2.42;0.93;;;23.50;44.30;;;;;;5034138;28;20480;-86
2022/09/16 07:01:33;;;;;;;2.63;1.00;;;23.70;43.80;;;;;;5056315;28;20876;-86
2022/09/16 07:04:04;;;;;;;1.92;0.90;;;23.50;43.50;;;;;;5057047;28;20878;-86
2022/09/16 07:06:32;;;;;;;4.78;0.90;;;23.60;43.60;;;;;;5037897;28;20443;-87
2022/09/16 07:09:02;;;;;;;3.60;0.90;;;23.40;44.50;;;;;;5056644;28;20448;-87
2022/09/16 07:11:29;;;;;;;3.78;1.10;;;23.40;43.90;;;;;;5054372;28;20368;-87
2022/09/16 07:14:01;;;;;;;1.38;0.70;;;23.10;45.00;;;;;;5070604;28;20375;-86
2022/09/16 07:16:28;;;;;;;3.72;0.80;;;22.80;45.20;;;;;;5035540;28;20399;-87
2022/09/16 07:18:57;;;;;;;2.42;0.80;;;22.30;46.20;;;;;;5053277;28;20367;-87
2022/09/16 07:21:29;;;;;;;2.65;1.00;;;22.10;47.30;;;;;;5055482;28;20371;-84
2022/09/16 07:24:01;;;;;;;1.55;1.00;;;21.90;48.20;;;;;;5057334;28;20483;-84
2022/09/16 07:26:33;;;;;;;2.30;1.00;;;21.90;48.70;;;;;;5062725;28;20370;-85
2022/09/16 07:29:03;;;;;;;3.47;1.10;;;22.00;48.60;;;;;;5062847;28;20387;-86
2022/09/16 07:31:36;;;;;;;2.33;1.02;;;21.80;49.20;;;;;;5052187;28;20915;-85
2022/09/16 07:34:05;;;;;;;3.60;1.20;;;21.60;49.30;;;;;;5051106;28;20376;-86
2022/09/16 07:36:36;;;;;;;3.47;1.05;;;21.30;50.10;;;;;;5050812;28;20445;-86
2022/09/16 07:39:04;;;;;;;3.93;1.10;;;21.00;50.80;;;;;;5051119;28;20377;-85
2022/09/16 07:41:37;;;;;;;2.75;1.20;;;20.90;49.80;;;;;;5033028;28;20407;-85
2022/09/16 07:44:07;;;;;;;3.70;1.17;;;20.80;51.00;;;;;;5053284;28;20374;-89
2022/09/16 07:46:36;;;;;;;2.40;1.40;;;20.60;51.30;;;;;;5065102;28;20422;-85
2022/09/16 07:49:05;;;;;;;4.95;1.30;;;20.50;52.30;;;;;;5063731;28;20382;-86
2022/09/16 07:51:36;;;;;;;2.85;1.30;;;20.40;51.60;;;;;;5057723;28;20458;-85
2022/09/16 07:54:10;;;;;;;5.40;1.30;;;20.20;52.50;;;;;;5055431;28;20901;-85
2022/09/16 07:56:39;;;;;;;3.85;1.40;;;20.20;52.70;;;;;;5055828;28;20399;-86
2022/09/16 07:59:11;;;;;;;3.97;1.42;;;20.10;53.10;;;;;;5038280;28;20410;-87
2022/09/16 08:01:38;;;;;;;2.42;1.40;;;19.90;53.50;;;;;;5067279;28;20834;-87
2022/09/16 08:04:06;;;;;;;2.25;1.33;;;19.90;53.60;;;;;;5058880;28;20372;-87
2022/09/16 08:06:38;;;;;;;3.80;1.27;;;19.80;54.40;;;;;;5057193;28;20924;-87
2022/09/16 08:09:06;;;;;;;2.42;1.30;;;19.80;54.60;;;;;;5069487;28;20421;-87
2022/09/16 08:11:33;;;;;;;4.45;1.90;;;19.80;54.00;;;;;;5052646;28;20411;-86
2022/09/16 08:14:01;;;;;;;4.03;2.20;;;19.70;54.50;;;;;;5056723;28;20882;-87
2022/09/16 08:16:29;;;;;;;5.40;2.47;;;19.70;54.50;;;;;;5039393;28;20380;-87
2022/09/16 08:19:00;;;;;;;4.38;2.30;;;19.60;55.50;;;;;;5040160;28;20380;-87
2022/09/16 08:21:29;;;;;;;4.72;2.38;;;19.60;56.00;;;;;;5065615;22;20501;-86
2022/09/16 08:23:57;;;;;;;3.92;2.20;;;19.50;55.10;;;;;;5034039;28;20765;-87
2022/09/16 08:26:25;;;;;;;5.15;2.83;;;19.50;55.90;;;;;;5030600;28;20373;-86
2022/09/16 08:28:53;;;;;;;5.38;3.05;;;19.50;55.90;;;;;;5030826;28;20409;-86
2022/09/16 08:31:21;;;;;;;5.43;2.70;;;19.40;55.90;;;;;;5030448;28;20381;-86
2022/09/16 08:33:48;;;;;;;4.95;1.80;;;19.40;56.20;;;;;;5013711;28;20373;-86
2022/09/16 08:36:21;;;;;;;3.05;1.40;;;19.30;55.50;;;;;;5030359;28;20409;-86
2022/09/16 08:38:53;;;;;;;2.83;1.30;;;19.30;55.80;;;;;;5030440;28;20884;-85
2022/09/16 08:41:41;;;;;;;2.67;1.55;;;19.40;55.40;;;;;;5032787;28;20417;-87
2022/09/16 08:44:17;;;;;;;4.35;1.75;;;19.40;55.00;;;;;;5032350;28;20462;-84
2022/09/16 08:46:57;;;;;;;4.47;2.00;;;19.40;55.20;;;;;;5031206;28;20843;-85
2022/09/16 08:49:43;;;;;;;4.55;2.13;;;19.30;55.40;;;;;;5030164;28;20719;-87
2022/09/16 08:52:32;;;;;;;4.20;1.85;;;19.20;56.20;;;;;;5018350;28;20472;-87
2022/09/16 08:55:15;;;;;;;4.80;1.88;;;19.10;56.70;;;;;;4988438;28;20385;-86
2022/09/16 08:57:57;;;;;;;5.15;1.90;;;19.00;56.70;;;;;;4988498;28;20485;-86
2022/09/16 09:00:24;;;;;;;2.92;1.45;;;18.90;56.90;;;;;;4988621;28;20436;-85
2022/09/16 09:03:00;;;;;;;2.67;1.00;;;18.90;56.90;;;;;;4988522;28;20389;-85
2022/09/16 09:05:40;;;;;;;4.63;1.30;;;18.90;56.90;;;;;;4988357;28;20397;-85
2022/09/16 09:08:13;;;;;;;3.25;1.13;;;18.80;57.20;;;;;;4972527;28;20392;-85
2022/09/16 09:11:01;;;;;;;3.88;1.13;;;18.70;56.90;;;;;;4988221;28;20407;-85
2022/09/16 09:13:39;;;;;;;2.88;1.20;;;18.70;56.70;;;;;;4988642;28;20372;-85
2022/09/16 09:16:37;;;;;;;3.67;1.38;;;18.70;56.90;;;;;;4990721;28;20388;-86
2022/09/16 09:19:31;;;;;;;2.45;1.30;;;18.50;57.40;;;;;;4972431;28;20736;-85
2022/09/16 09:22:07;;;;;;;2.72;1.15;;;18.50;57.40;;;;;;4972440;28;20450;-84
2022/09/16 09:24:55;;;;;;;3.33;1.23;;;18.40;57.40;;;;;;4981631;28;20433;-85
2022/09/16 09:27:39;;;;;;;5.10;1.48;;;18.40;57.20;;;;;;4981997;28;20468;-85
2022/09/16 09:30:15;;;;;;;2.85;1.23;;;18.40;57.40;;;;;;4968212;28;20390;-86
2022/09/16 09:32:48;;;;;;;4.10;1.40;;;18.30;57.70;;;;;;5011724;28;20379;-85
2022/09/16 09:35:46;;;;;;;3.92;1.65;;;18.10;58.90;;;;;;5030954;28;21005;-86
2022/09/16 09:39:02;;;;;;;4.53;1.88;;;18.00;59.70;;;;;;5019691;28;20411;-84
2022/09/16 09:41:44;;;;;;;3.45;1.63;;;17.90;59.90;;;;;;4944047;29;20398;-85
2022/09/16 09:44:35;;;;;;;3.83;1.67;;;17.90;61.10;;;;;;4943814;29;20386;-85
2022/09/16 09:47:16;;;;;;;3.08;1.70;;;17.90;61.20;;;;;;4944494;29;20381;-85
2022/09/16 09:49:54;;;;;;;3.30;1.70;;;17.80;61.40;;;;;;4946215;29;20941;-86
2022/09/16 09:52:45;;;;;;;5.13;1.55;;;17.80;62.00;;;;;;4953154;29;21003;-86
2022/09/16 09:55:18;;;;;;;3.38;1.17;;;17.80;61.80;;;;;;4941620;29;20453;-86
2022/09/16 09:58:28;;;;;;;3.83;1.20;;;17.90;61.50;;;;;;4958089;28;20384;-86
2022/09/16 10:00:56;;;;;;;2.30;1.37;;;17.90;61.60;;;;;;4957317;28;20517;-86
2022/09/16 10:03:27;;;;;;;3.60;1.87;;;17.90;62.10;;;;;;4956538;28;20718;-86
2022/09/16 10:05:54;;;;;;;3.67;1.80;;;17.90;61.70;;;;;;4953584;29;20400;-86
2022/09/16 10:08:57;;;;;;;3.88;1.67;;;17.80;62.40;;;;;;4967144;28;20442;-86
2022/09/16 10:11:26;;;;;;;2.50;1.52;;;17.80;63.20;;;;;;4900473;29;20966;-86
2022/09/16 10:14:04;;;;;;;4.18;1.45;;;17.60;62.70;;;;;;4917179;29;20407;-86
2022/09/16 10:16:36;;;;;;;3.05;1.40;;;17.70;62.50;;;;;;4916447;29;20443;-86
2022/09/16 10:19:19;;;;;;;2.95;1.42;;;17.60;62.90;;;;;;4969311;28;20415;-86
2022/09/16 10:21:52;;;;;;;3.15;1.50;;;17.60;62.50;;;;;;4995600;28;20405;-86
2022/09/16 10:24:37;;;;;;;3.50;1.85;;;17.50;62.90;;;;;;4985961;28;20382;-82
2022/09/16 10:27:26;;;;;;;3.65;1.75;;;17.60;62.30;;;;;;4972662;28;20619;-86
2022/09/16 10:30:07;;;;;;;4.43;1.70;;;17.70;61.50;;;;;;4975604;28;20805;-86
2022/09/16 10:32:51;;;;;;;3.95;1.52;;;17.70;61.60;;;;;;4972654;28;20401;-86
2022/09/16 10:35:30;;;;;;;3.72;1.67;;;17.70;61.10;;;;;;4971972;28;20371;-86
2022/09/16 10:38:21;;;;;;;4.20;1.60;;;17.80;61.00;;;;;;4973365;28;20395;-85
2022/09/16 10:40:59;;;;;;;3.75;1.60;;;17.80;60.70;;;;;;4984228;28;20407;-86
2022/09/16 10:43:29;;;;;;;2.92;1.50;;;17.80;60.90;;;;;;4975762;28;20382;-86
2022/09/16 10:46:17;;;;;;;4.18;1.58;;;17.80;60.70;;;;;;5017686;28;20374;-86
2022/09/16 10:48:50;;;;;;;3.05;1.40;;;17.80;61.40;;;;;;5036203;28;20416;-86
2022/09/16 10:51:35;;;;;;;2.60;1.20;;;17.70;61.60;;;;;;5032953;28;20403;-85
2022/09/16 10:54:05;;;;;;;2.65;1.00;;;17.60;61.20;;;;;;5036148;28;20385;-85
2022/09/16 10:56:53;;;;;;;3.33;1.20;;;17.60;61.40;;;;;;5035190;28;20392;-86
2022/09/16 10:59:21;;;;;;;1.40;1.00;;;17.50;61.60;;;;;;5036133;28;20385;-86
2022/09/16 11:02:19;;;;;;;4.28;1.40;;;17.50;61.80;;;;;;5035190;28;20385;-86
2022/09/16 11:04:57;;;;;;;3.70;1.23;;;17.50;61.80;;;;;;5024045;28;20750;-85
2022/09/16 11:07:27;;;;;;;2.38;1.10;;;17.40;62.40;;;;;;5038218;28;20368;-86
2022/09/16 11:10:18;;;;;;;1.90;1.00;;;17.30;63.00;;;;;;5044660;28;20408;-86
2022/09/16 11:12:56;;;;;;;1.50;1.00;;;17.20;64.10;;;;;;5033601;28;20377;-86
2022/09/16 11:15:54;;;;;;;2.85;1.30;;;17.10;64.00;;;;;;5034090;28;20842;-86
2022/09/16 11:18:21;;;;;;;4.85;1.20;;;17.00;64.60;;;;;;5035312;28;20423;-86
2022/09/16 11:21:16;;;;;;;1.90;1.10;;;16.90;64.30;;;;;;5034761;28;20405;-85
2022/09/16 11:24:12;;;;;;;3.53;1.15;;;16.90;65.00;;;;;;5033506;28;20369;-89
2022/09/16 11:27:10;;;;;;;3.78;1.40;;;16.80;65.50;;;;;;5025598;28;20381;-86
2022/09/16 11:29:51;;;;;;;3.67;1.40;;;16.80;66.00;;;;;;5035337;28;20441;-85
2022/09/16 11:32:34;;;;;;;3.80;1.48;;;16.70;66.40;;;;;;5029116;28;20898;-86
2022/09/16 11:35:39;;;;;;;3.70;1.20;;;16.60;66.90;;;;;;5021130;28;20397;-86
2022/09/16 11:38:25;;;;;;;3.35;1.40;;;16.50;67.30;;;;;;5036429;28;20434;-85
2022/09/16 11:40:58;;;;;;;3.83;1.40;;;16.40;68.30;;;;;;5041795;28;20575;-85
2022/09/16 11:43:37;;;;;;;2.67;1.13;;;16.40;68.40;;;;;;5033824;28;20927;-86
2022/09/16 11:46:29;;;;;;;2.77;1.20;;;16.40;68.20;;;;;;5034033;28;20825;-87
2022/09/16 11:49:16;;;;;;;1.70;1.00;;;16.40;68.50;;;;;;5022276;28;20427;-86
2022/09/16 11:52:00;;;;;;;3.72;1.08;;;16.40;67.20;;;;;;5013286;28;20869;-86
2022/09/16 11:54:46;;;;;;;2.97;1.10;;;16.50;67.60;;;;;;5013441;28;20416;-86
2022/09/16 11:57:18;;;;;;;2.45;1.05;;;16.40;67.70;;;;;;5018402;28;20370;-86
2022/09/16 12:00:06;;;;;;;2.97;1.17;;;16.40;66.60;;;;;;5030742;28;20409;-85
2022/09/16 12:02:51;;;;;;;3.17;1.00;;;16.50;66.90;;;;;;5030978;28;20961;-87
2022/09/16 12:05:24;;;;;;;4.30;1.02;;;16.50;67.20;;;;;;5030849;28;20864;-86
2022/09/16 12:08:01;;;;;;;2.90;0.95;;;16.60;67.30;;;;;;5030897;28;20784;-85
2022/09/16 12:10:43;;;;;;;2.00;1.00;;;16.50;67.20;;;;;;5030366;28;20872;-88
2022/09/16 12:13:39;;;;;;;2.25;1.05;;;16.50;67.90;;;;;;5030788;28;20730;-85
2022/09/16 12:16:14;;;;;;;4.72;1.10;;;16.50;67.20;;;;;;5031170;28;20504;-85
2022/09/16 12:18:51;;;;;;;2.13;1.00;;;16.50;67.50;;;;;;5030528;28;20831;-84
2022/09/16 12:21:44;;;;;;;2.33;0.98;;;16.50;67.50;;;;;;5030652;28;20809;-85
2022/09/16 12:24:41;;;;;;;3.03;1.10;;;16.40;67.60;;;;;;5012801;28;20829;-86
2022/09/16 12:27:39;;;;;;;3.88;1.23;;;16.40;67.90;;;;;;5028199;28;20394;-86
2022/09/16 12:30:15;;;;;;;3.28;1.10;;;16.40;68.10;;;;;;5024400;28;20477;-84
2022/09/16 12:32:57;;;;;;;3.17;1.05;;;16.40;68.00;;;;;;5037916;28;20384;-85
2022/09/16 12:35:38;;;;;;;1.80;1.00;;;16.40;68.60;;;;;;5037287;28;20470;-84
2022/09/16 12:38:16;;;;;;;3.40;1.13;;;16.40;68.40;;;;;;5041416;28;20785;-85
2022/09/16 12:41:06;;;;;;;3.08;1.00;;;16.40;68.50;;;;;;5041284;28;20419;-84
2022/09/16 12:44:03;;;;;;;3.38;1.17;;;16.40;68.10;;;;;;5048593;28;20364;-85
2022/09/16 12:46:51;;;;;;;1.98;0.90;;;16.40;68.50;;;;;;5047712;28;20379;-86
2022/09/16 12:49:43;;;;;;;1.73;0.90;;;16.40;68.70;;;;;;5032547;28;21069;-85
2022/09/16 12:52:18;;;;;;;2.08;0.88;;;16.40;68.20;;;;;;5042656;28;20373;-86
2022/09/16 12:54:56;;;;;;;3.22;1.08;;;16.40;68.00;;;;;;5054956;28;20431;-85
2022/09/16 12:58:23;;;;;;;2.90;0.90;;;16.40;69.00;;;;;;5037274;28;20833;-84
2022/09/16 13:01:19;;;;;;;2.30;0.90;;;16.40;68.60;;;;;;4993712;28;20511;-85
2022/09/16 13:04:09;;;;;;;2.25;0.95;;;16.40;68.60;;;;;;4991989;28;20388;-87
2022/09/16 13:06:39;;;;;;;2.30;1.00;;;16.40;69.60;;;;;;4993931;28;20397;-87
2022/09/16 13:09:32;;;;;;;2.30;0.90;;;16.40;68.90;;;;;;4996236;28;20433;-87
2022/09/16 13:12:01;;;;;;;2.00;0.93;;;16.40;69.60;;;;;;4996758;28;20389;-86
2022/09/16 13:14:32;;;;;;;4.10;1.00;;;16.50;69.10;;;;;;4997340;28;20395;-86
2022/09/16 13:17:04;;;;;;;1.92;0.90;;;16.50;69.60;;;;;;4996219;28;20385;-86
2022/09/16 13:19:50;;;;;;;2.03;0.90;;;16.50;70.00;;;;;;4994619;28;20424;-86
2022/09/16 13:22:20;;;;;;;2.13;1.02;;;16.40;69.70;;;;;;4996022;28;20499;-86
2022/09/16 13:25:10;;;;;;;1.95;0.90;;;16.40;70.20;;;;;;4994805;28;20397;-86
2022/09/16 13:27:39;;;;;;;1.43;0.80;;;16.40;70.70;;;;;;4993240;28;20508;-87
2022/09/16 13:30:26;;;;;;;3.60;1.40;;;16.40;70.80;;;;;;4992944;28;20481;-85
2022/09/16 13:32:53;;;;;;;2.55;1.00;;;16.30;71.10;;;;;;5028084;28;20380;-86
2022/09/16 13:35:22;;;;;;;3.47;1.00;;;16.30;71.20;;;;;;5014301;28;20387;-87